Search for airport 
image banner adimage banner adimage banner ad
image banner ad

PA74 - Gusler

Located in Elizabethville/Halifax, United States

ICAO - PA74, IATA -

Data provided by Airmate  

General information

Coordinates: N40°27'55" W76°50'24"
Elevation is 700 feet MSL.
Magnetic variation is -10° East
View others Airports in Pennsylvania

Operational data

Special qualification required
Current time UTC:
Current local time:
METAR: KMUI 091256Z AUTO 25003KT 10SM OVC110 08/05 A3010 RMK AO2 SLP198 T00830047
View NOTAMs / SUP AIP / TFR affecting this airport [VIEW]
Communications frequencies: [VIEW]

Runways:

RWY identifierQFULength (ft)Width (ft)SurfaceLDA (ft)
E2200100GRASS
W2200100GRASS

Airport contact information

Address: Elizabethville/Halifax United States

Satellite view of PA74